sensor_id;sensor_type;location;lat;lon;timestamp;temperature;humidity
32502;DHT22;18952;52.516;13.460;2022-12-07T00:03:38;2.20;99.90
32502;DHT22;18952;52.516;13.460;2022-12-07T00:06:06;2.20;99.90
32502;DHT22;18952;52.516;13.460;2022-12-07T00:08:34;2.20;99.90
32502;DHT22;18952;52.516;13.460;2022-12-07T00:11:10;2.20;99.90
32502;DHT22;18952;52.516;13.460;2022-12-07T00:13:37;2.20;99.90
32502;DHT22;18952;52.516;13.460;2022-12-07T00:16:13;2.10;99.90
32502;DHT22;18952;52.516;13.460;2022-12-07T00:18:41;2.10;99.90
32502;DHT22;18952;52.516;13.460;2022-12-07T00:21:15;2.10;99.90
32502;DHT22;18952;52.516;13.460;2022-12-07T00:23:43;2.10;99.90
32502;DHT22;18952;52.516;13.460;2022-12-07T00:26:13;2.00;99.90
32502;DHT22;18952;52.516;13.460;2022-12-07T00:28:40;2.00;99.90
32502;DHT22;18952;52.516;13.460;2022-12-07T00:31:10;2.00;99.90
32502;DHT22;18952;52.516;13.460;2022-12-07T00:33:37;2.00;99.90
32502;DHT22;18952;52.516;13.460;2022-12-07T00:36:10;2.00;99.90
32502;DHT22;18952;52.516;13.460;2022-12-07T00:38:38;2.00;99.90
32502;DHT22;18952;52.516;13.460;2022-12-07T00:41:13;2.00;99.90
32502;DHT22;18952;52.516;13.460;2022-12-07T00:43:41;2.00;99.90
32502;DHT22;18952;52.516;13.460;2022-12-07T00:46:10;1.90;99.90
32502;DHT22;18952;52.516;13.460;2022-12-07T00:48:38;1.90;99.90
32502;DHT22;18952;52.516;13.460;2022-12-07T00:51:05;1.90;99.90
32502;DHT22;18952;52.516;13.460;2022-12-07T00:53:35;1.90;99.90
32502;DHT22;18952;52.516;13.460;2022-12-07T00:56:08;1.90;99.90
32502;DHT22;18952;52.516;13.460;2022-12-07T00:58:35;1.90;99.90
32502;DHT22;18952;52.516;13.460;2022-12-07T01:01:04;1.80;99.90
32502;DHT22;18952;52.516;13.460;2022-12-07T01:03:31;1.80;99.90
32502;DHT22;18952;52.516;13.460;2022-12-07T01:05:58;1.80;99.90
32502;DHT22;18952;52.516;13.460;2022-12-07T01:08:26;1.80;99.90
32502;DHT22;18952;52.516;13.460;2022-12-07T01:11:05;1.70;99.90
32502;DHT22;18952;52.516;13.460;2022-12-07T01:13:33;1.70;99.90
32502;DHT22;18952;52.516;13.460;2022-12-07T01:16:02;1.60;99.90
32502;DHT22;18952;52.516;13.460;2022-12-07T01:18:31;1.60;99.90
32502;DHT22;18952;52.516;13.460;2022-12-07T01:21:15;1.60;99.90
32502;DHT22;18952;52.516;13.460;2022-12-07T01:23:43;1.60;99.90
32502;DHT22;18952;52.516;13.460;2022-12-07T01:26:12;1.60;99.90
32502;DHT22;18952;52.516;13.460;2022-12-07T01:28:39;1.60;99.90
32502;DHT22;18952;52.516;13.460;2022-12-07T01:31:11;1.60;99.90
32502;DHT22;18952;52.516;13.460;2022-12-07T01:33:39;1.70;99.90
32502;DHT22;18952;52.516;13.460;2022-12-07T01:36:12;1.70;99.90
32502;DHT22;18952;52.516;13.460;2022-12-07T01:38:39;1.70;99.90
32502;DHT22;18952;52.516;13.460;2022-12-07T01:41:06;1.70;99.90
32502;DHT22;18952;52.516;13.460;2022-12-07T01:43:34;1.80;99.90
32502;DHT22;18952;52.516;13.460;2022-12-07T01:46:01;1.80;99.90
32502;DHT22;18952;52.516;13.460;2022-12-07T01:48:33;1.70;99.90
32502;DHT22;18952;52.516;13.460;2022-12-07T01:51:05;1.70;99.90
32502;DHT22;18952;52.516;13.460;2022-12-07T01:53:37;1.70;99.90
32502;DHT22;18952;52.516;13.460;2022-12-07T01:56:05;1.70;99.90
32502;DHT22;18952;52.516;13.460;2022-12-07T01:58:34;1.70;99.90
32502;DHT22;18952;52.516;13.460;2022-12-07T02:01:01;1.70;99.90
32502;DHT22;18952;52.516;13.460;2022-12-07T02:03:38;1.70;99.90
32502;DHT22;18952;52.516;13.460;2022-12-07T02:06:07;1.70;99.90
32502;DHT22;18952;52.516;13.460;2022-12-07T02:08:34;1.70;99.90
32502;DHT22;18952;52.516;13.460;2022-12-07T02:11:03;1.70;99.90
32502;DHT22;18952;52.516;13.460;2022-12-07T02:13:33;1.70;99.90
32502;DHT22;18952;52.516;13.460;2022-12-07T02:21:53;1.80;99.90
32502;DHT22;18952;52.516;13.460;2022-12-07T02:29:54;1.80;99.90
32502;DHT22;18952;52.516;13.460;2022-12-07T02:40:57;1.60;99.90
32502;DHT22;18952;52.516;13.460;2022-12-07T02:43:28;1.60;99.90
32502;DHT22;18952;52.516;13.460;2022-12-07T02:45:59;1.50;99.90
32502;DHT22;18952;52.516;13.460;2022-12-07T02:48:28;1.50;99.90
32502;DHT22;18952;52.516;13.460;2022-12-07T02:50:55;1.50;99.90
32502;DHT22;18952;52.516;13.460;2022-12-07T02:56:06;1.50;99.90
32502;DHT22;18952;52.516;13.460;2022-12-07T03:01:26;1.50;99.90
32502;DHT22;18952;52.516;13.460;2022-12-07T03:06:56;1.40;99.90
32502;DHT22;18952;52.516;13.460;2022-12-07T03:12:42;1.50;99.90
32502;DHT22;18952;52.516;13.460;2022-12-07T03:15:16;1.60;99.90
32502;DHT22;18952;52.516;13.460;2022-12-07T03:17:46;1.60;99.90
32502;DHT22;18952;52.516;13.460;2022-12-07T03:20:17;1.60;99.90
32502;DHT22;18952;52.516;13.460;2022-12-07T03:22:47;1.60;99.90
32502;DHT22;18952;52.516;13.460;2022-12-07T03:25:15;1.50;99.90
32502;DHT22;18952;52.516;13.460;2022-12-07T03:27:52;1.50;99.90
32502;DHT22;18952;52.516;13.460;2022-12-07T03:30:22;1.50;99.90
32502;DHT22;18952;52.516;13.460;2022-12-07T03:35:39;1.50;99.90
32502;DHT22;18952;52.516;13.460;2022-12-07T03:39:00;1.50;99.90
32502;DHT22;18952;52.516;13.460;2022-12-07T03:41:10;1.50;99.90
32502;DHT22;18952;52.516;13.460;2022-12-07T03:43:39;1.40;99.90
32502;DHT22;18952;52.516;13.460;2022-12-07T03:55:05;1.40;99.90
32502;DHT22;18952;52.516;13.460;2022-12-07T03:57:12;1.40;99.90
32502;DHT22;18952;52.516;13.460;2022-12-07T03:59:40;1.40;99.90
32502;DHT22;18952;52.516;13.460;2022-12-07T04:02:08;1.40;99.90
32502;DHT22;18952;52.516;13.460;2022-12-07T04:04:37;1.40;99.90
32502;DHT22;18952;52.516;13.460;2022-12-07T04:07:04;1.40;99.90
32502;DHT22;18952;52.516;13.460;2022-12-07T04:09:31;1.40;99.90
32502;DHT22;18952;52.516;13.460;2022-12-07T04:11:57;1.30;99.90
32502;DHT22;18952;52.516;13.460;2022-12-07T04:14:24;1.40;99.90
32502;DHT22;18952;52.516;13.460;2022-12-07T04:16:53;1.40;99.90
32502;DHT22;18952;52.516;13.460;2022-12-07T04:19:22;1.40;99.90
32502;DHT22;18952;52.516;13.460;2022-12-07T04:21:49;1.40;99.90
32502;DHT22;18952;52.516;13.460;2022-12-07T04:24:16;1.40;99.90
32502;DHT22;18952;52.516;13.460;2022-12-07T04:26:44;1.40;99.90
32502;DHT22;18952;52.516;13.460;2022-12-07T04:29:11;1.40;99.90
32502;DHT22;18952;52.516;13.460;2022-12-07T04:31:38;1.40;99.90
32502;DHT22;18952;52.516;13.460;2022-12-07T04:34:06;1.40;99.90
32502;DHT22;18952;52.516;13.460;2022-12-07T04:36:33;1.40;99.90
32502;DHT22;18952;52.516;13.460;2022-12-07T04:39:00;1.40;99.90
32502;DHT22;18952;52.516;13.460;2022-12-07T04:41:27;1.40;99.90
32502;DHT22;18952;52.516;13.460;2022-12-07T04:43:59;1.40;99.90
32502;DHT22;18952;52.516;13.460;2022-12-07T04:46:27;1.30;99.90
32502;DHT22;18952;52.516;13.460;2022-12-07T04:48:54;1.30;99.90
32502;DHT22;18952;52.516;13.460;2022-12-07T04:51:24;1.30;99.90
32502;DHT22;18952;52.516;13.460;2022-12-07T04:53:51;1.30;99.90
32502;DHT22;18952;52.516;13.460;2022-12-07T04:56:18;1.30;99.90
32502;DHT22;18952;52.516;13.460;2022-12-07T04:58:47;1.40;99.90
32502;DHT22;18952;52.516;13.460;2022-12-07T05:01:15;1.40;99.90
32502;DHT22;18952;52.516;13.460;2022-12-07T05:03:42;1.40;99.90
32502;DHT22;18952;52.516;13.460;2022-12-07T05:06:10;1.40;99.90
32502;DHT22;18952;52.516;13.460;2022-12-07T05:08:39;1.50;99.90
32502;DHT22;18952;52.516;13.460;2022-12-07T05:11:07;1.50;99.90
32502;DHT22;18952;52.516;13.460;2022-12-07T05:13:35;1.50;99.90
32502;DHT22;18952;52.516;13.460;2022-12-07T05:16:02;1.50;99.90
32502;DHT22;18952;52.516;13.460;2022-12-07T05:18:29;1.50;99.90
32502;DHT22;18952;52.516;13.460;2022-12-07T05:20:56;1.50;99.90
32502;DHT22;18952;52.516;13.460;2022-12-07T05:23:23;1.60;99.90
32502;DHT22;18952;52.516;13.460;2022-12-07T05:25:49;1.50;99.90
32502;DHT22;18952;52.516;13.460;2022-12-07T05:28:16;1.60;99.90
32502;DHT22;18952;52.516;13.460;2022-12-07T05:30:43;1.60;99.90
32502;DHT22;18952;52.516;13.460;2022-12-07T05:33:10;1.60;99.90
32502;DHT22;18952;52.516;13.460;2022-12-07T05:35:36;1.70;99.90
32502;DHT22;18952;52.516;13.460;2022-12-07T05:38:03;1.70;99.90
32502;DHT22;18952;52.516;13.460;2022-12-07T05:40:30;1.70;99.90
32502;DHT22;18952;52.516;13.460;2022-12-07T05:42:56;1.80;99.90
32502;DHT22;18952;52.516;13.460;2022-12-07T05:45:29;1.80;99.90
32502;DHT22;18952;52.516;13.460;2022-12-07T05:47:56;1.80;99.90
32502;DHT22;18952;52.516;13.460;2022-12-07T05:50:23;1.80;99.90
32502;DHT22;18952;52.516;13.460;2022-12-07T05:52:50;1.80;99.90
32502;DHT22;18952;52.516;13.460;2022-12-07T05:55:16;1.80;99.90
32502;DHT22;18952;52.516;13.460;2022-12-07T05:57:43;1.80;99.90
32502;DHT22;18952;52.516;13.460;2022-12-07T06:00:12;1.90;99.90
32502;DHT22;18952;52.516;13.460;2022-12-07T06:02:38;1.90;99.90
32502;DHT22;18952;52.516;13.460;2022-12-07T06:05:06;1.90;99.90
32502;DHT22;18952;52.516;13.460;2022-12-07T06:07:33;2.00;99.90
32502;DHT22;18952;52.516;13.460;2022-12-07T06:09:59;2.00;99.90
32502;DHT22;18952;52.516;13.460;2022-12-07T06:12:27;2.00;99.90
32502;DHT22;18952;52.516;13.460;2022-12-07T06:14:53;2.10;99.90
32502;DHT22;18952;52.516;13.460;2022-12-07T06:17:20;2.10;99.90
32502;DHT22;18952;52.516;13.460;2022-12-07T06:19:47;2.20;99.90
32502;DHT22;18952;52.516;13.460;2022-12-07T06:22:13;2.20;99.90
32502;DHT22;18952;52.516;13.460;2022-12-07T06:24:40;2.30;99.90
32502;DHT22;18952;52.516;13.460;2022-12-07T06:27:07;2.20;99.90
32502;DHT22;18952;52.516;13.460;2022-12-07T06:29:34;2.30;99.90
32502;DHT22;18952;52.516;13.460;2022-12-07T06:32:01;2.30;99.90
32502;DHT22;18952;52.516;13.460;2022-12-07T06:34:28;2.30;99.90
32502;DHT22;18952;52.516;13.460;2022-12-07T06:36:55;2.30;99.90
32502;DHT22;18952;52.516;13.460;2022-12-07T06:39:25;2.20;99.90
32502;DHT22;18952;52.516;13.460;2022-12-07T06:41:52;2.20;99.90
32502;DHT22;18952;52.516;13.460;2022-12-07T06:44:19;2.10;99.90
32502;DHT22;18952;52.516;13.460;2022-12-07T06:46:46;2.10;99.90
32502;DHT22;18952;52.516;13.460;2022-12-07T06:49:12;2.10;99.90
32502;DHT22;18952;52.516;13.460;2022-12-07T06:51:39;2.10;99.90
32502;DHT22;18952;52.516;13.460;2022-12-07T06:54:07;2.10;99.90
32502;DHT22;18952;52.516;13.460;2022-12-07T06:56:33;2.10;99.90
32502;DHT22;18952;52.516;13.460;2022-12-07T06:59:04;2.20;99.90
32502;DHT22;18952;52.516;13.460;2022-12-07T07:01:31;2.20;99.90
32502;DHT22;18952;52.516;13.460;2022-12-07T07:03:58;2.20;99.90
32502;DHT22;18952;52.516;13.460;2022-12-07T07:06:24;2.20;99.90
32502;DHT22;18952;52.516;13.460;2022-12-07T07:08:51;2.20;99.90
32502;DHT22;18952;52.516;13.460;2022-12-07T07:11:18;2.30;99.90
32502;DHT22;18952;52.516;13.460;2022-12-07T07:13:45;2.30;99.90
32502;DHT22;18952;52.516;13.460;2022-12-07T07:16:12;2.40;99.90
32502;DHT22;18952;52.516;13.460;2022-12-07T07:18:39;2.40;99.90
32502;DHT22;18952;52.516;13.460;2022-12-07T07:21:06;2.40;99.90
32502;DHT22;18952;52.516;13.460;2022-12-07T07:23:33;2.40;99.90
32502;DHT22;18952;52.516;13.460;2022-12-07T07:25:59;2.50;99.90
32502;DHT22;18952;52.516;13.460;2022-12-07T07:28:26;2.50;99.90
32502;DHT22;18952;52.516;13.460;2022-12-07T07:30:53;2.60;99.90
32502;DHT22;18952;52.516;13.460;2022-12-07T07:33:20;2.60;99.90
32502;DHT22;18952;52.516;13.460;2022-12-07T07:35:47;2.60;99.90
32502;DHT22;18952;52.516;13.460;2022-12-07T07:38:13;2.60;99.90
32502;DHT22;18952;52.516;13.460;2022-12-07T07:40:40;2.60;99.90
32502;DHT22;18952;52.516;13.460;2022-12-07T07:43:07;2.60;99.90
32502;DHT22;18952;52.516;13.460;2022-12-07T07:45:33;2.70;99.90
32502;DHT22;18952;52.516;13.460;2022-12-07T07:48:00;2.70;99.90
32502;DHT22;18952;52.516;13.460;2022-12-07T07:50:27;2.70;99.90
32502;DHT22;18952;52.516;13.460;2022-12-07T07:52:54;2.70;99.90
32502;DHT22;18952;52.516;13.460;2022-12-07T07:55:20;2.70;99.90
32502;DHT22;18952;52.516;13.460;2022-12-07T07:57:47;2.70;99.90
32502;DHT22;18952;52.516;13.460;2022-12-07T08:00:20;2.70;99.90
32502;DHT22;18952;52.516;13.460;2022-12-07T08:02:47;2.70;99.90
32502;DHT22;18952;52.516;13.460;2022-12-07T08:05:14;2.70;99.90
32502;DHT22;18952;52.516;13.460;2022-12-07T08:07:41;2.80;99.90
32502;DHT22;18952;52.516;13.460;2022-12-07T08:10:11;2.80;99.90
32502;DHT22;18952;52.516;13.460;2022-12-07T08:12:39;2.70;99.90
32502;DHT22;18952;52.516;13.460;2022-12-07T08:15:06;2.80;99.90
32502;DHT22;18952;52.516;13.460;2022-12-07T08:17:33;2.70;99.90
32502;DHT22;18952;52.516;13.460;2022-12-07T08:20:00;2.70;99.90
32502;DHT22;18952;52.516;13.460;2022-12-07T08:22:27;2.80;99.90
32502;DHT22;18952;52.516;13.460;2022-12-07T08:24:54;2.80;99.90
32502;DHT22;18952;52.516;13.460;2022-12-07T08:27:20;2.90;99.90
32502;DHT22;18952;52.516;13.460;2022-12-07T08:29:47;2.90;99.90
32502;DHT22;18952;52.516;13.460;2022-12-07T08:32:14;2.90;99.90
32502;DHT22;18952;52.516;13.460;2022-12-07T08:34:41;2.90;99.90
32502;DHT22;18952;52.516;13.460;2022-12-07T08:37:07;2.90;99.90
32502;DHT22;18952;52.516;13.460;2022-12-07T08:39:34;3.00;99.90
32502;DHT22;18952;52.516;13.460;2022-12-07T08:42:01;3.00;99.90
32502;DHT22;18952;52.516;13.460;2022-12-07T08:44:27;3.00;99.90
32502;DHT22;18952;52.516;13.460;2022-12-07T08:46:59;3.00;99.90
32502;DHT22;18952;52.516;13.460;2022-12-07T08:49:41;3.00;99.90
32502;DHT22;18952;52.516;13.460;2022-12-07T08:52:09;3.00;99.90
32502;DHT22;18952;52.516;13.460;2022-12-07T08:54:38;3.00;99.90
32502;DHT22;18952;52.516;13.460;2022-12-07T08:57:06;3.10;99.90
32502;DHT22;18952;52.516;13.460;2022-12-07T08:59:34;3.10;99.90
32502;DHT22;18952;52.516;13.460;2022-12-07T09:02:02;3.10;99.90
32502;DHT22;18952;52.516;13.460;2022-12-07T09:04:29;3.10;99.90
32502;DHT22;18952;52.516;13.460;2022-12-07T09:06:56;3.10;99.90
32502;DHT22;18952;52.516;13.460;2022-12-07T09:09:33;3.20;99.90
32502;DHT22;18952;52.516;13.460;2022-12-07T09:12:12;3.10;99.90
32502;DHT22;18952;52.516;13.460;2022-12-07T09:14:51;3.10;99.90
32502;DHT22;18952;52.516;13.460;2022-12-07T09:17:18;3.10;99.90
32502;DHT22;18952;52.516;13.460;2022-12-07T09:19:45;3.00;99.90
32502;DHT22;18952;52.516;13.460;2022-12-07T09:22:11;3.10;99.90
32502;DHT22;18952;52.516;13.460;2022-12-07T09:24:38;3.00;99.90
32502;DHT22;18952;52.516;13.460;2022-12-07T09:27:05;3.10;99.90
32502;DHT22;18952;52.516;13.460;2022-12-07T09:29:32;3.10;99.90
32502;DHT22;18952;52.516;13.460;2022-12-07T09:31:58;3.00;99.90
32502;DHT22;18952;52.516;13.460;2022-12-07T09:34:25;3.00;99.90
32502;DHT22;18952;52.516;13.460;2022-12-07T09:36:52;3.00;99.90
32502;DHT22;18952;52.516;13.460;2022-12-07T09:39:19;3.00;99.90
32502;DHT22;18952;52.516;13.460;2022-12-07T09:41:45;2.90;99.90
32502;DHT22;18952;52.516;13.460;2022-12-07T09:44:21;2.80;99.90
32502;DHT22;18952;52.516;13.460;2022-12-07T09:46:49;2.80;99.90
32502;DHT22;18952;52.516;13.460;2022-12-07T09:49:23;2.80;99.90
32502;DHT22;18952;52.516;13.460;2022-12-07T09:54:48;2.80;99.90
32502;DHT22;18952;52.516;13.460;2022-12-07T09:57:15;2.70;99.90
32502;DHT22;18952;52.516;13.460;2022-12-07T09:59:42;2.70;99.90
32502;DHT22;18952;52.516;13.460;2022-12-07T10:02:28;2.70;99.90
32502;DHT22;18952;52.516;13.460;2022-12-07T10:04:59;2.70;99.90
32502;DHT22;18952;52.516;13.460;2022-12-07T10:07:26;2.70;99.90
32502;DHT22;18952;52.516;13.460;2022-12-07T10:09:53;2.70;99.90
32502;DHT22;18952;52.516;13.460;2022-12-07T10:12:20;2.70;99.90
32502;DHT22;18952;52.516;13.460;2022-12-07T10:15:02;2.70;99.90
32502;DHT22;18952;52.516;13.460;2022-12-07T10:17:41;2.60;99.90
32502;DHT22;18952;52.516;13.460;2022-12-07T10:20:17;2.70;99.90
32502;DHT22;18952;52.516;13.460;2022-12-07T10:23:00;2.70;99.90
32502;DHT22;18952;52.516;13.460;2022-12-07T10:25:36;2.80;99.90
32502;DHT22;18952;52.516;13.460;2022-12-07T10:28:14;2.70;99.90
32502;DHT22;18952;52.516;13.460;2022-12-07T10:30:59;2.70;99.90
32502;DHT22;18952;52.516;13.460;2022-12-07T10:33:37;2.70;99.90
32502;DHT22;18952;52.516;13.460;2022-12-07T10:36:34;2.80;99.90
32502;DHT22;18952;52.516;13.460;2022-12-07T10:39:09;2.70;99.90
32502;DHT22;18952;52.516;13.460;2022-12-07T10:41:56;2.70;99.90
32502;DHT22;18952;52.516;13.460;2022-12-07T10:44:26;2.70;99.90
32502;DHT22;18952;52.516;13.460;2022-12-07T10:52:11;2.70;99.90
32502;DHT22;18952;52.516;13.460;2022-12-07T10:55:10;2.70;99.90
32502;DHT22;18952;52.516;13.460;2022-12-07T11:03:50;2.50;99.90
32502;DHT22;18952;52.516;13.460;2022-12-07T11:06:37;2.60;99.90
32502;DHT22;18952;52.516;13.460;2022-12-07T11:09:43;2.70;99.90
32502;DHT22;18952;52.516;13.460;2022-12-07T11:12:54;2.70;99.90
32502;DHT22;18952;52.516;13.460;2022-12-07T11:20:51;2.80;99.90
32502;DHT22;18952;52.516;13.460;2022-12-07T11:26:07;2.80;99.90
32502;DHT22;18952;52.516;13.460;2022-12-07T11:34:50;2.90;99.90
32502;DHT22;18952;52.516;13.460;2022-12-07T11:37:28;2.90;99.90
32502;DHT22;18952;52.516;13.460;2022-12-07T11:40:24;3.00;99.90
32502;DHT22;18952;52.516;13.460;2022-12-07T11:43:09;2.90;99.90
32502;DHT22;18952;52.516;13.460;2022-12-07T11:45:41;3.00;99.90
32502;DHT22;18952;52.516;13.460;2022-12-07T11:48:22;3.00;99.90
32502;DHT22;18952;52.516;13.460;2022-12-07T11:50:56;3.00;99.90
32502;DHT22;18952;52.516;13.460;2022-12-07T11:53:38;3.10;99.90
32502;DHT22;18952;52.516;13.460;2022-12-07T11:56:11;3.10;99.90
32502;DHT22;18952;52.516;13.460;2022-12-07T11:58:49;3.10;99.90
32502;DHT22;18952;52.516;13.460;2022-12-07T12:01:48;3.10;99.90
32502;DHT22;18952;52.516;13.460;2022-12-07T12:06:55;3.20;99.90
32502;DHT22;18952;52.516;13.460;2022-12-07T12:09:30;3.20;99.90
32502;DHT22;18952;52.516;13.460;2022-12-07T12:12:20;3.20;99.90
32502;DHT22;18952;52.516;13.460;2022-12-07T12:15:39;3.30;99.90
32502;DHT22;18952;52.516;13.460;2022-12-07T12:20:46;3.30;99.90
32502;DHT22;18952;52.516;13.460;2022-12-07T12:23:21;3.30;99.90
32502;DHT22;18952;52.516;13.460;2022-12-07T12:25:57;3.40;99.90
32502;DHT22;18952;52.516;13.460;2022-12-07T12:28:49;3.40;99.90
32502;DHT22;18952;52.516;13.460;2022-12-07T12:33:52;3.40;99.90
32502;DHT22;18952;52.516;13.460;2022-12-07T12:47:04;3.40;99.90
32502;DHT22;18952;52.516;13.460;2022-12-07T12:50:22;3.40;99.90
32502;DHT22;18952;52.516;13.460;2022-12-07T13:03:32;3.40;99.90
32502;DHT22;18952;52.516;13.460;2022-12-07T13:08:52;3.40;99.90
32502;DHT22;18952;52.516;13.460;2022-12-07T13:11:29;3.50;99.90
32502;DHT22;18952;52.516;13.460;2022-12-07T13:15:02;3.50;99.90
32502;DHT22;18952;52.516;13.460;2022-12-07T13:17:04;3.50;99.90
32502;DHT22;18952;52.516;13.460;2022-12-07T13:25:11;3.50;99.90
32502;DHT22;18952;52.516;13.460;2022-12-07T13:27:41;3.50;99.90
32502;DHT22;18952;52.516;13.460;2022-12-07T13:30:19;3.50;99.90
32502;DHT22;18952;52.516;13.460;2022-12-07T13:32:57;3.40;99.90
32502;DHT22;18952;52.516;13.460;2022-12-07T13:35:35;3.50;99.90
32502;DHT22;18952;52.516;13.460;2022-12-07T13:38:05;3.50;99.90
32502;DHT22;18952;52.516;13.460;2022-12-07T13:40:32;3.60;99.90
32502;DHT22;18952;52.516;13.460;2022-12-07T13:43:01;3.50;99.90
32502;DHT22;18952;52.516;13.460;2022-12-07T13:45:31;3.50;99.90
32502;DHT22;18952;52.516;13.460;2022-12-07T13:47:59;3.50;99.90
32502;DHT22;18952;52.516;13.460;2022-12-07T13:50:30;3.60;99.90
32502;DHT22;18952;52.516;13.460;2022-12-07T13:52:59;3.60;99.90
32502;DHT22;18952;52.516;13.460;2022-12-07T13:55:27;3.60;99.90
32502;DHT22;18952;52.516;13.460;2022-12-07T13:57:55;3.60;99.90
32502;DHT22;18952;52.516;13.460;2022-12-07T14:00:23;3.60;99.90
32502;DHT22;18952;52.516;13.460;2022-12-07T14:05:44;3.60;99.90
32502;DHT22;18952;52.516;13.460;2022-12-07T14:13:37;3.60;99.90
32502;DHT22;18952;52.516;13.460;2022-12-07T14:16:29;3.60;99.90
32502;DHT22;18952;52.516;13.460;2022-12-07T14:18:58;3.60;99.90
32502;DHT22;18952;52.516;13.460;2022-12-07T14:21:30;3.60;99.90
32502;DHT22;18952;52.516;13.460;2022-12-07T14:24:19;3.60;99.90
32502;DHT22;18952;52.516;13.460;2022-12-07T14:26:48;3.60;99.90
32502;DHT22;18952;52.516;13.460;2022-12-07T14:31:54;3.50;99.90
32502;DHT22;18952;52.516;13.460;2022-12-07T14:34:22;3.50;99.90
32502;DHT22;18952;52.516;13.460;2022-12-07T14:36:50;3.60;99.90
32502;DHT22;18952;52.516;13.460;2022-12-07T14:39:17;3.50;99.90
32502;DHT22;18952;52.516;13.460;2022-12-07T14:41:44;3.60;99.90
32502;DHT22;18952;52.516;13.460;2022-12-07T14:44:12;3.50;99.90
32502;DHT22;18952;52.516;13.460;2022-12-07T14:46:59;3.40;99.90
32502;DHT22;18952;52.516;13.460;2022-12-07T14:49:46;3.40;99.90
32502;DHT22;18952;52.516;13.460;2022-12-07T14:52:32;3.40;99.90
32502;DHT22;18952;52.516;13.460;2022-12-07T14:55:24;3.40;99.90
32502;DHT22;18952;52.516;13.460;2022-12-07T14:57:51;3.30;99.90
32502;DHT22;18952;52.516;13.460;2022-12-07T15:00:19;3.30;99.90
32502;DHT22;18952;52.516;13.460;2022-12-07T15:02:48;3.30;99.90
32502;DHT22;18952;52.516;13.460;2022-12-07T15:05:15;3.30;99.90
32502;DHT22;18952;52.516;13.460;2022-12-07T15:07:44;3.30;99.90
32502;DHT22;18952;52.516;13.460;2022-12-07T15:10:23;3.30;99.90
32502;DHT22;18952;52.516;13.460;2022-12-07T15:12:50;3.20;99.90
32502;DHT22;18952;52.516;13.460;2022-12-07T15:15:17;3.20;99.90
32502;DHT22;18952;52.516;13.460;2022-12-07T15:17:44;3.10;99.90
32502;DHT22;18952;52.516;13.460;2022-12-07T15:20:15;3.10;99.90
32502;DHT22;18952;52.516;13.460;2022-12-07T15:22:41;3.00;99.90
32502;DHT22;18952;52.516;13.460;2022-12-07T15:25:12;3.00;99.90
32502;DHT22;18952;52.516;13.460;2022-12-07T15:27:39;3.00;99.90
32502;DHT22;18952;52.516;13.460;2022-12-07T15:30:06;3.00;99.90
32502;DHT22;18952;52.516;13.460;2022-12-07T15:32:33;2.90;99.90
32502;DHT22;18952;52.516;13.460;2022-12-07T15:35:00;2.90;99.90
32502;DHT22;18952;52.516;13.460;2022-12-07T15:37:27;2.90;99.90
32502;DHT22;18952;52.516;13.460;2022-12-07T15:39:54;2.90;99.90
32502;DHT22;18952;52.516;13.460;2022-12-07T15:42:21;2.80;99.90
32502;DHT22;18952;52.516;13.460;2022-12-07T15:44:48;2.80;99.90
32502;DHT22;18952;52.516;13.460;2022-12-07T15:47:14;2.90;99.90
32502;DHT22;18952;52.516;13.460;2022-12-07T15:49:41;2.90;99.90
32502;DHT22;18952;52.516;13.460;2022-12-07T15:52:08;2.90;99.90
32502;DHT22;18952;52.516;13.460;2022-12-07T15:54:35;2.90;99.90
32502;DHT22;18952;52.516;13.460;2022-12-07T15:57:02;2.90;99.90
32502;DHT22;18952;52.516;13.460;2022-12-07T15:59:29;2.90;99.90
32502;DHT22;18952;52.516;13.460;2022-12-07T16:01:56;2.90;99.90
32502;DHT22;18952;52.516;13.460;2022-12-07T16:04:23;2.90;99.90
32502;DHT22;18952;52.516;13.460;2022-12-07T16:06:49;3.00;99.90
32502;DHT22;18952;52.516;13.460;2022-12-07T16:09:16;3.00;99.90
32502;DHT22;18952;52.516;13.460;2022-12-07T16:11:43;3.00;99.90
32502;DHT22;18952;52.516;13.460;2022-12-07T16:14:10;3.00;99.90
32502;DHT22;18952;52.516;13.460;2022-12-07T16:16:36;3.00;99.90
32502;DHT22;18952;52.516;13.460;2022-12-07T16:19:03;3.00;99.90
32502;DHT22;18952;52.516;13.460;2022-12-07T16:21:30;2.90;99.90
32502;DHT22;18952;52.516;13.460;2022-12-07T16:23:57;2.90;99.90
32502;DHT22;18952;52.516;13.460;2022-12-07T16:26:24;2.90;99.90
32502;DHT22;18952;52.516;13.460;2022-12-07T16:28:52;2.80;99.90
32502;DHT22;18952;52.516;13.460;2022-12-07T16:31:22;2.80;99.90
32502;DHT22;18952;52.516;13.460;2022-12-07T16:33:51;2.80;99.90
32502;DHT22;18952;52.516;13.460;2022-12-07T16:36:19;2.70;99.90
32502;DHT22;18952;52.516;13.460;2022-12-07T16:39:06;2.70;99.90
32502;DHT22;18952;52.516;13.460;2022-12-07T16:41:33;2.70;99.90
32502;DHT22;18952;52.516;13.460;2022-12-07T16:44:06;2.60;99.90
32502;DHT22;18952;52.516;13.460;2022-12-07T16:46:34;2.60;99.90
32502;DHT22;18952;52.516;13.460;2022-12-07T16:49:03;2.60;99.90
32502;DHT22;18952;52.516;13.460;2022-12-07T16:51:30;2.50;99.90
32502;DHT22;18952;52.516;13.460;2022-12-07T16:53:57;2.50;99.90
32502;DHT22;18952;52.516;13.460;2022-12-07T16:56:24;2.50;99.90
32502;DHT22;18952;52.516;13.460;2022-12-07T16:58:50;2.50;99.90
32502;DHT22;18952;52.516;13.460;2022-12-07T17:01:19;2.40;99.90
32502;DHT22;18952;52.516;13.460;2022-12-07T17:03:46;2.40;99.90
32502;DHT22;18952;52.516;13.460;2022-12-07T17:06:22;2.40;99.90
32502;DHT22;18952;52.516;13.460;2022-12-07T17:08:50;2.40;99.90
32502;DHT22;18952;52.516;13.460;2022-12-07T17:11:18;2.30;99.90
32502;DHT22;18952;52.516;13.460;2022-12-07T17:13:45;2.30;99.90
32502;DHT22;18952;52.516;13.460;2022-12-07T17:16:12;2.30;99.90
32502;DHT22;18952;52.516;13.460;2022-12-07T17:18:39;2.30;99.90
32502;DHT22;18952;52.516;13.460;2022-12-07T17:21:08;2.30;99.90
32502;DHT22;18952;52.516;13.460;2022-12-07T17:23:36;2.30;99.90
32502;DHT22;18952;52.516;13.460;2022-12-07T17:26:08;2.30;99.90
32502;DHT22;18952;52.516;13.460;2022-12-07T17:28:35;2.20;99.90
32502;DHT22;18952;52.516;13.460;2022-12-07T17:31:05;2.20;99.90
32502;DHT22;18952;52.516;13.460;2022-12-07T17:33:33;2.20;99.90
32502;DHT22;18952;52.516;13.460;2022-12-07T17:36:00;2.20;99.90
32502;DHT22;18952;52.516;13.460;2022-12-07T17:38:30;2.20;99.90
32502;DHT22;18952;52.516;13.460;2022-12-07T17:40:56;2.10;99.90
32502;DHT22;18952;52.516;13.460;2022-12-07T17:43:23;2.10;99.90
32502;DHT22;18952;52.516;13.460;2022-12-07T17:45:50;2.10;99.90
32502;DHT22;18952;52.516;13.460;2022-12-07T17:48:17;2.10;99.90
32502;DHT22;18952;52.516;13.460;2022-12-07T17:50:43;2.00;99.90
32502;DHT22;18952;52.516;13.460;2022-12-07T17:53:11;2.10;99.90